sensor_id;sensor_type;location;lat;lon;timestamp;temperature;humidity
81895;DHT22;71358;45.642;13.758;2023-07-24T03:53:17;27.60;61.90
81895;DHT22;71358;45.642;13.758;2023-07-24T03:56:44;27.80;62.40
81895;DHT22;71358;45.642;13.758;2023-07-24T03:59:28;28.30;63.20
81895;DHT22;71358;45.642;13.758;2023-07-24T04:02:13;28.70;62.60
81895;DHT22;71358;45.642;13.758;2023-07-24T04:07:07;29.10;60.80
81895;DHT22;71358;45.642;13.758;2023-07-24T04:11:07;29.40;59.30
81895;DHT22;71358;45.642;13.758;2023-07-24T04:13:52;29.40;58.60
81895;DHT22;71358;45.642;13.758;2023-07-24T04:16:36;29.20;58.30
81895;DHT22;71358;45.642;13.758;2023-07-24T04:19:21;29.00;58.60
81895;DHT22;71358;45.642;13.758;2023-07-24T04:22:05;28.90;58.90
81895;DHT22;71358;45.642;13.758;2023-07-24T04:24:50;28.80;59.00
81895;DHT22;71358;45.642;13.758;2023-07-24T04:27:34;28.80;59.20
81895;DHT22;71358;45.642;13.758;2023-07-24T04:30:19;28.70;59.20
81895;DHT22;71358;45.642;13.758;2023-07-24T04:33:04;28.70;59.30
81895;DHT22;71358;45.642;13.758;2023-07-24T04:35:48;28.70;59.30
81895;DHT22;71358;45.642;13.758;2023-07-24T04:38:34;28.70;59.30
81895;DHT22;71358;45.642;13.758;2023-07-24T04:41:18;28.70;59.30
81895;DHT22;71358;45.642;13.758;2023-07-24T04:44:03;28.70;59.30
81895;DHT22;71358;45.642;13.758;2023-07-24T04:46:47;28.70;59.20
81895;DHT22;71358;45.642;13.758;2023-07-24T04:49:32;28.70;59.10
81895;DHT22;71358;45.642;13.758;2023-07-24T04:52:17;28.70;59.10
81895;DHT22;71358;45.642;13.758;2023-07-24T04:55:01;28.70;59.30
81895;DHT22;71358;45.642;13.758;2023-07-24T04:57:46;28.70;59.30
81895;DHT22;71358;45.642;13.758;2023-07-24T05:00:30;28.80;59.30
81895;DHT22;71358;45.642;13.758;2023-07-24T05:03:15;28.80;59.20
81895;DHT22;71358;45.642;13.758;2023-07-24T05:06:01;28.80;59.10
81895;DHT22;71358;45.642;13.758;2023-07-24T05:08:45;28.80;59.00
81895;DHT22;71358;45.642;13.758;2023-07-24T05:11:30;28.80;58.80
81895;DHT22;71358;45.642;13.758;2023-07-24T05:14:15;28.80;58.80
81895;DHT22;71358;45.642;13.758;2023-07-24T05:16:59;28.80;58.80
81895;DHT22;71358;45.642;13.758;2023-07-24T05:19:44;28.80;58.80
81895;DHT22;71358;45.642;13.758;2023-07-24T05:22:28;28.80;58.80
81895;DHT22;71358;45.642;13.758;2023-07-24T05:25:13;28.80;58.80
81895;DHT22;71358;45.642;13.758;2023-07-24T05:27:58;28.80;58.80
81895;DHT22;71358;45.642;13.758;2023-07-24T05:30:42;28.80;58.80
81895;DHT22;71358;45.642;13.758;2023-07-24T05:33:27;28.80;58.70
81895;DHT22;71358;45.642;13.758;2023-07-24T05:36:11;28.80;58.70
81895;DHT22;71358;45.642;13.758;2023-07-24T05:38:56;28.80;58.60
81895;DHT22;71358;45.642;13.758;2023-07-24T05:41:41;28.70;58.30
81895;DHT22;71358;45.642;13.758;2023-07-24T05:44:26;28.70;58.20
81895;DHT22;71358;45.642;13.758;2023-07-24T05:47:10;28.70;58.20
81895;DHT22;71358;45.642;13.758;2023-07-24T05:49:55;28.70;58.20
81895;DHT22;71358;45.642;13.758;2023-07-24T05:52:40;28.70;58.20
81895;DHT22;71358;45.642;13.758;2023-07-24T05:55:24;28.70;58.20
81895;DHT22;71358;45.642;13.758;2023-07-24T05:58:09;28.70;58.80
81895;DHT22;71358;45.642;13.758;2023-07-24T06:00:54;28.70;58.20
81895;DHT22;71358;45.642;13.758;2023-07-24T06:03:42;28.70;58.20
81895;DHT22;71358;45.642;13.758;2023-07-24T06:06:26;28.70;58.20
81895;DHT22;71358;45.642;13.758;2023-07-24T06:09:12;28.70;58.40
81895;DHT22;71358;45.642;13.758;2023-07-24T06:11:56;28.70;58.40
81895;DHT22;71358;45.642;13.758;2023-07-24T06:14:41;28.70;58.30
81895;DHT22;71358;45.642;13.758;2023-07-24T06:17:25;28.70;58.10
81895;DHT22;71358;45.642;13.758;2023-07-24T06:20:10;28.70;58.10
81895;DHT22;71358;45.642;13.758;2023-07-24T06:22:54;28.70;58.10
81895;DHT22;71358;45.642;13.758;2023-07-24T06:25:39;28.70;58.00
81895;DHT22;71358;45.642;13.758;2023-07-24T06:28:24;28.70;57.90
81895;DHT22;71358;45.642;13.758;2023-07-24T06:31:08;28.70;57.80
81895;DHT22;71358;45.642;13.758;2023-07-24T06:33:53;28.70;57.60
81895;DHT22;71358;45.642;13.758;2023-07-24T06:36:38;28.70;57.40
81895;DHT22;71358;45.642;13.758;2023-07-24T06:39:22;28.70;57.20
81895;DHT22;71358;45.642;13.758;2023-07-24T06:42:07;28.70;57.00
81895;DHT22;71358;45.642;13.758;2023-07-24T06:44:51;28.70;56.60
81895;DHT22;71358;45.642;13.758;2023-07-24T06:47:36;28.70;56.30
81895;DHT22;71358;45.642;13.758;2023-07-24T06:50:20;28.70;56.20
81895;DHT22;71358;45.642;13.758;2023-07-24T06:53:05;28.70;56.00
81895;DHT22;71358;45.642;13.758;2023-07-24T06:55:50;28.70;55.90
81895;DHT22;71358;45.642;13.758;2023-07-24T06:58:34;28.70;55.90
81895;DHT22;71358;45.642;13.758;2023-07-24T07:01:19;28.70;55.90
81895;DHT22;71358;45.642;13.758;2023-07-24T07:04:04;28.60;56.00
81895;DHT22;71358;45.642;13.758;2023-07-24T07:06:48;28.60;56.40
81895;DHT22;71358;45.642;13.758;2023-07-24T07:09:33;28.60;56.60
81895;DHT22;71358;45.642;13.758;2023-07-24T07:12:17;28.60;56.70
81895;DHT22;71358;45.642;13.758;2023-07-24T07:15:02;28.60;57.10
81895;DHT22;71358;45.642;13.758;2023-07-24T07:17:47;28.60;57.20
81895;DHT22;71358;45.642;13.758;2023-07-24T07:20:31;28.60;57.40
81895;DHT22;71358;45.642;13.758;2023-07-24T07:23:16;28.60;57.60
81895;DHT22;71358;45.642;13.758;2023-07-24T07:26:00;28.60;57.70
81895;DHT22;71358;45.642;13.758;2023-07-24T07:28:45;28.60;57.90
81895;DHT22;71358;45.642;13.758;2023-07-24T07:31:30;28.60;58.00
81895;DHT22;71358;45.642;13.758;2023-07-24T07:34:14;28.60;58.20
81895;DHT22;71358;45.642;13.758;2023-07-24T07:36:59;28.60;58.30
81895;DHT22;71358;45.642;13.758;2023-07-24T07:39:44;28.60;58.50
81895;DHT22;71358;45.642;13.758;2023-07-24T07:42:28;28.60;58.60
81895;DHT22;71358;45.642;13.758;2023-07-24T07:45:13;28.60;58.70
81895;DHT22;71358;45.642;13.758;2023-07-24T07:47:58;28.60;58.80
81895;DHT22;71358;45.642;13.758;2023-07-24T07:50:43;28.60;58.80
81895;DHT22;71358;45.642;13.758;2023-07-24T07:53:27;28.60;58.80
81895;DHT22;71358;45.642;13.758;2023-07-24T07:56:12;28.70;58.80
81895;DHT22;71358;45.642;13.758;2023-07-24T07:58:56;28.70;58.80
81895;DHT22;71358;45.642;13.758;2023-07-24T08:01:41;28.70;59.10
81895;DHT22;71358;45.642;13.758;2023-07-24T08:04:26;28.80;59.80
81895;DHT22;71358;45.642;13.758;2023-07-24T08:07:10;28.80;59.70
81895;DHT22;71358;45.642;13.758;2023-07-24T08:09:55;28.80;59.60
81895;DHT22;71358;45.642;13.758;2023-07-24T08:12:40;28.90;59.60
81895;DHT22;71358;45.642;13.758;2023-07-24T08:15:25;28.90;59.60
81895;DHT22;71358;45.642;13.758;2023-07-24T08:18:10;28.90;59.60
81895;DHT22;71358;45.642;13.758;2023-07-24T08:20:54;28.90;59.60
81895;DHT22;71358;45.642;13.758;2023-07-24T08:23:39;28.90;59.60
81895;DHT22;71358;45.642;13.758;2023-07-24T08:26:24;28.90;59.60
81895;DHT22;71358;45.642;13.758;2023-07-24T08:29:10;28.90;59.90
81895;DHT22;71358;45.642;13.758;2023-07-24T08:31:54;29.00;60.80
81895;DHT22;71358;45.642;13.758;2023-07-24T08:34:39;29.00;60.90
81895;DHT22;71358;45.642;13.758;2023-07-24T08:37:23;29.00;60.80
81895;DHT22;71358;45.642;13.758;2023-07-24T08:40:09;29.10;61.60
81895;DHT22;71358;45.642;13.758;2023-07-24T08:42:54;29.10;61.70
81895;DHT22;71358;45.642;13.758;2023-07-24T08:45:38;29.00;62.10
81895;DHT22;71358;45.642;13.758;2023-07-24T08:48:24;29.00;62.70
81895;DHT22;71358;45.642;13.758;2023-07-24T08:51:11;28.90;63.00
81895;DHT22;71358;45.642;13.758;2023-07-24T08:53:56;28.90;62.90
81895;DHT22;71358;45.642;13.758;2023-07-24T08:56:40;28.90;62.50
81895;DHT22;71358;45.642;13.758;2023-07-24T08:59:26;28.80;62.40
81895;DHT22;71358;45.642;13.758;2023-07-24T09:02:11;28.80;62.70
81895;DHT22;71358;45.642;13.758;2023-07-24T09:04:55;28.80;62.90
81895;DHT22;71358;45.642;13.758;2023-07-24T09:07:40;28.80;62.80
81895;DHT22;71358;45.642;13.758;2023-07-24T09:10:25;28.80;63.00
81895;DHT22;71358;45.642;13.758;2023-07-24T09:13:12;28.80;63.30
81895;DHT22;71358;45.642;13.758;2023-07-24T09:15:57;28.80;63.20
81895;DHT22;71358;45.642;13.758;2023-07-24T09:18:42;28.80;63.30
81895;DHT22;71358;45.642;13.758;2023-07-24T09:21:31;28.90;63.10
81895;DHT22;71358;45.642;13.758;2023-07-24T09:24:16;28.90;63.10
81895;DHT22;71358;45.642;13.758;2023-07-24T09:27:00;28.80;62.90
81895;DHT22;71358;45.642;13.758;2023-07-24T09:29:48;28.80;63.30
81895;DHT22;71358;45.642;13.758;2023-07-24T09:32:33;28.90;63.30
81895;DHT22;71358;45.642;13.758;2023-07-24T09:35:19;28.80;63.60
81895;DHT22;71358;45.642;13.758;2023-07-24T09:38:09;28.90;64.20
81895;DHT22;71358;45.642;13.758;2023-07-24T09:40:56;28.90;64.70
81895;DHT22;71358;45.642;13.758;2023-07-24T09:43:41;28.90;64.50
81895;DHT22;71358;45.642;13.758;2023-07-24T09:46:26;28.90;64.40
81895;DHT22;71358;45.642;13.758;2023-07-24T09:49:12;28.90;64.20
81895;DHT22;71358;45.642;13.758;2023-07-24T09:51:59;28.90;64.50
81895;DHT22;71358;45.642;13.758;2023-07-24T09:57:53;28.90;65.30
81895;DHT22;71358;45.642;13.758;2023-07-24T10:00:39;29.00;65.30
81895;DHT22;71358;45.642;13.758;2023-07-24T10:03:25;29.10;65.60
81895;DHT22;71358;45.642;13.758;2023-07-24T10:06:11;29.10;65.90
81895;DHT22;71358;45.642;13.758;2023-07-24T10:08:56;29.10;66.20
81895;DHT22;71358;45.642;13.758;2023-07-24T10:11:41;29.00;67.90
81895;DHT22;71358;45.642;13.758;2023-07-24T10:14:26;29.00;69.10
81895;DHT22;71358;45.642;13.758;2023-07-24T10:17:11;29.10;69.70
81895;DHT22;71358;45.642;13.758;2023-07-24T10:20:04;29.10;71.00
81895;DHT22;71358;45.642;13.758;2023-07-24T10:22:50;29.10;72.10
81895;DHT22;71358;45.642;13.758;2023-07-24T10:25:37;29.10;72.20
81895;DHT22;71358;45.642;13.758;2023-07-24T10:28:35;29.00;72.40
81895;DHT22;71358;45.642;13.758;2023-07-24T10:31:25;29.00;72.00
81895;DHT22;71358;45.642;13.758;2023-07-24T10:34:12;29.00;72.30
81895;DHT22;71358;45.642;13.758;2023-07-24T10:37:02;29.10;71.90
81895;DHT22;71358;45.642;13.758;2023-07-24T10:39:47;29.10;71.30
81895;DHT22;71358;45.642;13.758;2023-07-24T10:42:32;29.10;71.90
81895;DHT22;71358;45.642;13.758;2023-07-24T10:45:18;29.10;72.10
81895;DHT22;71358;45.642;13.758;2023-07-24T10:48:03;29.10;72.30
81895;DHT22;71358;45.642;13.758;2023-07-24T10:50:49;29.10;72.70
81895;DHT22;71358;45.642;13.758;2023-07-24T10:53:38;29.10;73.30
81895;DHT22;71358;45.642;13.758;2023-07-24T10:56:22;29.10;73.70
81895;DHT22;71358;45.642;13.758;2023-07-24T10:59:07;29.10;73.90
81895;DHT22;71358;45.642;13.758;2023-07-24T11:01:52;29.10;73.90
81895;DHT22;71358;45.642;13.758;2023-07-24T11:04:36;29.10;73.80
81895;DHT22;71358;45.642;13.758;2023-07-24T11:07:21;29.10;74.00
81895;DHT22;71358;45.642;13.758;2023-07-24T11:10:19;29.10;74.20
81895;DHT22;71358;45.642;13.758;2023-07-24T11:13:10;29.10;74.50
81895;DHT22;71358;45.642;13.758;2023-07-24T11:15:55;29.10;74.80
81895;DHT22;71358;45.642;13.758;2023-07-24T11:18:47;29.00;75.40
81895;DHT22;71358;45.642;13.758;2023-07-24T11:21:31;29.10;76.40
81895;DHT22;71358;45.642;13.758;2023-07-24T11:24:17;29.00;77.50
81895;DHT22;71358;45.642;13.758;2023-07-24T11:27:09;29.00;78.50
81895;DHT22;71358;45.642;13.758;2023-07-24T11:29:54;29.00;78.40
81895;DHT22;71358;45.642;13.758;2023-07-24T11:32:39;29.00;78.70
81895;DHT22;71358;45.642;13.758;2023-07-24T11:35:25;28.90;78.80
81895;DHT22;71358;45.642;13.758;2023-07-24T11:38:10;28.90;78.90
81895;DHT22;71358;45.642;13.758;2023-07-24T11:40:55;28.90;79.00
81895;DHT22;71358;45.642;13.758;2023-07-24T11:43:46;29.00;79.20
81895;DHT22;71358;45.642;13.758;2023-07-24T11:46:32;29.00;79.00
81895;DHT22;71358;45.642;13.758;2023-07-24T11:49:16;29.00;79.30
81895;DHT22;71358;45.642;13.758;2023-07-24T11:52:05;29.00;79.50
81895;DHT22;71358;45.642;13.758;2023-07-24T11:54:57;29.00;79.90
81895;DHT22;71358;45.642;13.758;2023-07-24T11:58:01;28.90;79.70
81895;DHT22;71358;45.642;13.758;2023-07-24T12:00:48;28.90;79.20
81895;DHT22;71358;45.642;13.758;2023-07-24T12:03:33;28.90;78.90
81895;DHT22;71358;45.642;13.758;2023-07-24T12:06:17;28.90;78.80
81895;DHT22;71358;45.642;13.758;2023-07-24T12:09:03;28.90;78.40
81895;DHT22;71358;45.642;13.758;2023-07-24T12:11:51;28.90;78.90
81895;DHT22;71358;45.642;13.758;2023-07-24T12:14:35;28.90;77.50
81895;DHT22;71358;45.642;13.758;2023-07-24T12:17:20;28.90;77.30
81895;DHT22;71358;45.642;13.758;2023-07-24T12:20:06;29.00;77.30
81895;DHT22;71358;45.642;13.758;2023-07-24T12:22:52;29.00;77.10
81895;DHT22;71358;45.642;13.758;2023-07-24T12:25:37;29.00;76.60
81895;DHT22;71358;45.642;13.758;2023-07-24T12:28:22;29.00;76.20
81895;DHT22;71358;45.642;13.758;2023-07-24T12:31:06;29.00;76.00
81895;DHT22;71358;45.642;13.758;2023-07-24T12:33:51;29.00;76.00
81895;DHT22;71358;45.642;13.758;2023-07-24T12:36:35;29.00;75.60
81895;DHT22;71358;45.642;13.758;2023-07-24T12:39:20;29.00;75.30
81895;DHT22;71358;45.642;13.758;2023-07-24T12:42:05;29.00;75.30
81895;DHT22;71358;45.642;13.758;2023-07-24T12:44:50;29.00;75.40
81895;DHT22;71358;45.642;13.758;2023-07-24T12:47:34;29.00;76.10
81895;DHT22;71358;45.642;13.758;2023-07-24T12:50:19;29.00;76.30
81895;DHT22;71358;45.642;13.758;2023-07-24T12:53:03;29.10;75.70
81895;DHT22;71358;45.642;13.758;2023-07-24T12:55:48;29.10;75.30
81895;DHT22;71358;45.642;13.758;2023-07-24T12:58:33;29.10;74.90
81895;DHT22;71358;45.642;13.758;2023-07-24T13:01:17;29.10;75.10
81895;DHT22;71358;45.642;13.758;2023-07-24T13:04:02;29.10;73.80
81895;DHT22;71358;45.642;13.758;2023-07-24T13:06:46;29.20;73.40
81895;DHT22;71358;45.642;13.758;2023-07-24T13:09:31;29.30;73.40
81895;DHT22;71358;45.642;13.758;2023-07-24T13:12:15;29.20;72.90
81895;DHT22;71358;45.642;13.758;2023-07-24T13:15:00;29.30;72.80
81895;DHT22;71358;45.642;13.758;2023-07-24T13:17:45;29.30;72.50
81895;DHT22;71358;45.642;13.758;2023-07-24T13:20:30;29.30;72.10
81895;DHT22;71358;45.642;13.758;2023-07-24T13:23:14;29.30;72.00
81895;DHT22;71358;45.642;13.758;2023-07-24T13:25:59;29.30;72.00
81895;DHT22;71358;45.642;13.758;2023-07-24T13:28:43;29.30;71.90
81895;DHT22;71358;45.642;13.758;2023-07-24T13:31:28;29.30;71.90
81895;DHT22;71358;45.642;13.758;2023-07-24T13:34:13;29.30;71.90
81895;DHT22;71358;45.642;13.758;2023-07-24T13:36:57;29.20;72.20
81895;DHT22;71358;45.642;13.758;2023-07-24T13:39:42;29.20;72.00
81895;DHT22;71358;45.642;13.758;2023-07-24T13:42:26;29.20;72.00
81895;DHT22;71358;45.642;13.758;2023-07-24T13:45:11;29.20;71.90
81895;DHT22;71358;45.642;13.758;2023-07-24T13:47:57;29.20;71.80
81895;DHT22;71358;45.642;13.758;2023-07-24T13:50:42;29.20;72.00
81895;DHT22;71358;45.642;13.758;2023-07-24T13:53:26;29.20;72.20
81895;DHT22;71358;45.642;13.758;2023-07-24T13:56:11;29.20;72.70
81895;DHT22;71358;45.642;13.758;2023-07-24T13:58:56;29.20;72.70
81895;DHT22;71358;45.642;13.758;2023-07-24T14:01:40;29.20;72.70
81895;DHT22;71358;45.642;13.758;2023-07-24T14:04:25;29.20;72.60
81895;DHT22;71358;45.642;13.758;2023-07-24T14:07:09;29.20;72.70
81895;DHT22;71358;45.642;13.758;2023-07-24T14:09:54;29.20;72.80
81895;DHT22;71358;45.642;13.758;2023-07-24T14:12:38;29.20;73.00
81895;DHT22;71358;45.642;13.758;2023-07-24T14:15:23;29.20;73.30
81895;DHT22;71358;45.642;13.758;2023-07-24T14:18:08;29.20;73.30
81895;DHT22;71358;45.642;13.758;2023-07-24T14:20:52;29.20;73.10
81895;DHT22;71358;45.642;13.758;2023-07-24T14:23:39;29.20;72.90
81895;DHT22;71358;45.642;13.758;2023-07-24T14:26:24;29.20;72.90
81895;DHT22;71358;45.642;13.758;2023-07-24T14:29:08;29.20;72.70
81895;DHT22;71358;45.642;13.758;2023-07-24T14:31:52;29.20;72.60
81895;DHT22;71358;45.642;13.758;2023-07-24T14:34:37;29.20;72.50
81895;DHT22;71358;45.642;13.758;2023-07-24T14:37:22;29.20;72.40
81895;DHT22;71358;45.642;13.758;2023-07-24T14:40:09;29.20;72.50
81895;DHT22;71358;45.642;13.758;2023-07-24T14:42:54;29.20;72.30
81895;DHT22;71358;45.642;13.758;2023-07-24T14:45:39;29.20;72.30
81895;DHT22;71358;45.642;13.758;2023-07-24T14:48:23;29.20;72.30
81895;DHT22;71358;45.642;13.758;2023-07-24T14:51:08;29.20;72.30
81895;DHT22;71358;45.642;13.758;2023-07-24T14:53:53;29.20;72.30
81895;DHT22;71358;45.642;13.758;2023-07-24T14:56:37;29.20;72.40
81895;DHT22;71358;45.642;13.758;2023-07-24T14:59:22;29.20;72.80
81895;DHT22;71358;45.642;13.758;2023-07-24T15:02:07;29.20;72.90
81895;DHT22;71358;45.642;13.758;2023-07-24T15:04:51;29.20;73.00
81895;DHT22;71358;45.642;13.758;2023-07-24T15:07:36;29.20;73.00
81895;DHT22;71358;45.642;13.758;2023-07-24T15:10:21;29.30;73.10
81895;DHT22;71358;45.642;13.758;2023-07-24T15:13:05;29.40;72.80
81895;DHT22;71358;45.642;13.758;2023-07-24T15:15:50;29.50;72.60
81895;DHT22;71358;45.642;13.758;2023-07-24T15:18:34;29.60;72.80
81895;DHT22;71358;45.642;13.758;2023-07-24T15:21:19;29.70;74.10
81895;DHT22;71358;45.642;13.758;2023-07-24T15:24:04;29.70;75.30
81895;DHT22;71358;45.642;13.758;2023-07-24T15:26:48;29.80;76.00
81895;DHT22;71358;45.642;13.758;2023-07-24T15:29:36;29.80;75.90
81895;DHT22;71358;45.642;13.758;2023-07-24T15:32:21;29.80;75.40
81895;DHT22;71358;45.642;13.758;2023-07-24T15:35:05;29.90;75.10
81895;DHT22;71358;45.642;13.758;2023-07-24T15:37:50;29.90;74.90
81895;DHT22;71358;45.642;13.758;2023-07-24T15:40:35;29.90;74.70
81895;DHT22;71358;45.642;13.758;2023-07-24T15:43:21;29.90;74.60
81895;DHT22;71358;45.642;13.758;2023-07-24T15:46:08;29.90;75.60
81895;DHT22;71358;45.642;13.758;2023-07-24T15:48:53;29.90;75.30
81895;DHT22;71358;45.642;13.758;2023-07-24T15:51:37;30.00;74.80
81895;DHT22;71358;45.642;13.758;2023-07-24T15:54:22;30.00;74.40
81895;DHT22;71358;45.642;13.758;2023-07-24T15:57:07;30.00;74.20
81895;DHT22;71358;45.642;13.758;2023-07-24T15:59:51;29.90;74.10
81895;DHT22;71358;45.642;13.758;2023-07-24T16:02:36;29.90;73.70
81895;DHT22;71358;45.642;13.758;2023-07-24T16:05:21;29.80;72.90
81895;DHT22;71358;45.642;13.758;2023-07-24T16:08:06;29.80;72.10
81895;DHT22;71358;45.642;13.758;2023-07-24T16:10:50;29.70;71.10
81895;DHT22;71358;45.642;13.758;2023-07-24T16:13:38;29.70;70.80
81895;DHT22;71358;45.642;13.758;2023-07-24T16:16:22;29.70;70.50
81895;DHT22;71358;45.642;13.758;2023-07-24T16:19:25;29.70;70.60
81895;DHT22;71358;45.642;13.758;2023-07-24T16:22:10;29.70;70.50
81895;DHT22;71358;45.642;13.758;2023-07-24T16:24:55;29.70;70.40
81895;DHT22;71358;45.642;13.758;2023-07-24T16:27:40;29.70;70.20
81895;DHT22;71358;45.642;13.758;2023-07-24T16:30:24;29.70;70.00
81895;DHT22;71358;45.642;13.758;2023-07-24T16:33:09;29.70;69.70
81895;DHT22;71358;45.642;13.758;2023-07-24T16:35:54;29.70;69.50
81895;DHT22;71358;45.642;13.758;2023-07-24T16:38:38;29.80;69.20
81895;DHT22;71358;45.642;13.758;2023-07-24T16:41:23;29.80;69.00
81895;DHT22;71358;45.642;13.758;2023-07-24T16:44:08;29.80;68.70
81895;DHT22;71358;45.642;13.758;2023-07-24T16:46:54;29.80;68.50
81895;DHT22;71358;45.642;13.758;2023-07-24T16:49:38;29.80;68.30
81895;DHT22;71358;45.642;13.758;2023-07-24T16:52:23;29.80;68.20
81895;DHT22;71358;45.642;13.758;2023-07-24T16:55:08;29.80;68.10
81895;DHT22;71358;45.642;13.758;2023-07-24T16:57:53;29.80;68.00
81895;DHT22;71358;45.642;13.758;2023-07-24T17:00:37;29.80;67.80
81895;DHT22;71358;45.642;13.758;2023-07-24T17:03:22;29.80;67.70
81895;DHT22;71358;45.642;13.758;2023-07-24T17:06:06;29.80;67.60
81895;DHT22;71358;45.642;13.758;2023-07-24T17:08:51;29.80;67.40
81895;DHT22;71358;45.642;13.758;2023-07-24T17:11:35;29.80;67.40
81895;DHT22;71358;45.642;13.758;2023-07-24T17:14:20;29.80;67.30
81895;DHT22;71358;45.642;13.758;2023-07-24T17:17:05;29.80;66.90
81895;DHT22;71358;45.642;13.758;2023-07-24T17:19:49;29.70;66.90
81895;DHT22;71358;45.642;13.758;2023-07-24T17:22:34;29.70;66.90
81895;DHT22;71358;45.642;13.758;2023-07-24T17:25:20;29.70;66.90
81895;DHT22;71358;45.642;13.758;2023-07-24T17:28:04;29.70;67.20
81895;DHT22;71358;45.642;13.758;2023-07-24T17:30:49;29.80;67.20
81895;DHT22;71358;45.642;13.758;2023-07-24T17:33:34;29.80;67.20
81895;DHT22;71358;45.642;13.758;2023-07-24T17:36:19;29.80;67.40
81895;DHT22;71358;45.642;13.758;2023-07-24T17:39:03;29.80;68.00
81895;DHT22;71358;45.642;13.758;2023-07-24T17:41:48;29.70;68.30
81895;DHT22;71358;45.642;13.758;2023-07-24T17:44:32;29.70;68.60
81895;DHT22;71358;45.642;13.758;2023-07-24T17:47:17;29.70;69.00
81895;DHT22;71358;45.642;13.758;2023-07-24T17:50:02;29.70;70.20
81895;DHT22;71358;45.642;13.758;2023-07-24T17:52:46;29.70;69.90
81895;DHT22;71358;45.642;13.758;2023-07-24T17:55:31;29.60;70.20
81895;DHT22;71358;45.642;13.758;2023-07-24T17:58:15;29.70;70.50
81895;DHT22;71358;45.642;13.758;2023-07-24T18:01:00;29.70;70.30
81895;DHT22;71358;45.642;13.758;2023-07-24T18:03:45;29.60;70.40
81895;DHT22;71358;45.642;13.758;2023-07-24T18:06:29;29.70;70.50
81895;DHT22;71358;45.642;13.758;2023-07-24T18:09:14;29.70;70.60
81895;DHT22;71358;45.642;13.758;2023-07-24T18:11:59;29.70;70.80
81895;DHT22;71358;45.642;13.758;2023-07-24T18:14:43;29.70;71.00
81895;DHT22;71358;45.642;13.758;2023-07-24T18:17:28;29.60;70.90
81895;DHT22;71358;45.642;13.758;2023-07-24T18:20:12;29.70;71.10
81895;DHT22;71358;45.642;13.758;2023-07-24T18:22:57;29.70;71.20
81895;DHT22;71358;45.642;13.758;2023-07-24T18:25:42;29.60;71.50
81895;DHT22;71358;45.642;13.758;2023-07-24T18:28:27;29.70;71.90
81895;DHT22;71358;45.642;13.758;2023-07-24T18:31:11;29.70;71.90
81895;DHT22;71358;45.642;13.758;2023-07-24T18:33:56;29.70;72.10
81895;DHT22;71358;45.642;13.758;2023-07-24T18:36:41;29.70;71.90
81895;DHT22;71358;45.642;13.758;2023-07-24T18:39:25;29.70;71.80
81895;DHT22;71358;45.642;13.758;2023-07-24T18:42:10;29.70;71.90
81895;DHT22;71358;45.642;13.758;2023-07-24T18:44:55;29.60;72.90
81895;DHT22;71358;45.642;13.758;2023-07-24T18:47:39;29.70;72.30
81895;DHT22;71358;45.642;13.758;2023-07-24T18:50:24;29.70;72.00
81895;DHT22;71358;45.642;13.758;2023-07-24T18:53:09;29.70;71.80
81895;DHT22;71358;45.642;13.758;2023-07-24T18:55:54;29.70;71.70
81895;DHT22;71358;45.642;13.758;2023-07-24T18:58:38;29.70;71.70
81895;DHT22;71358;45.642;13.758;2023-07-24T19:01:24;29.70;71.60
81895;DHT22;71358;45.642;13.758;2023-07-24T19:04:09;29.70;71.70
81895;DHT22;71358;45.642;13.758;2023-07-24T19:06:53;29.70;71.90
81895;DHT22;71358;45.642;13.758;2023-07-24T19:09:38;29.70;71.70
81895;DHT22;71358;45.642;13.758;2023-07-24T19:12:22;29.70;71.40
81895;DHT22;71358;45.642;13.758;2023-07-24T19:15:08;29.70;72.10
81895;DHT22;71358;45.642;13.758;2023-07-24T19:17:52;29.70;71.60
81895;DHT22;71358;45.642;13.758;2023-07-24T19:20:37;29.70;71.70
81895;DHT22;71358;45.642;13.758;2023-07-24T19:23:21;29.70;72.10
81895;DHT22;71358;45.642;13.758;2023-07-24T19:26:06;29.70;72.50
81895;DHT22;71358;45.642;13.758;2023-07-24T19:28:50;29.70;72.60
81895;DHT22;71358;45.642;13.758;2023-07-24T19:31:35;29.70;72.60
81895;DHT22;71358;45.642;13.758;2023-07-24T19:34:20;29.70;72.60
81895;DHT22;71358;45.642;13.758;2023-07-24T19:37:04;29.70;72.40
81895;DHT22;71358;45.642;13.758;2023-07-24T19:39:49;29.70;72.20
81895;DHT22;71358;45.642;13.758;2023-07-24T19:42:33;29.70;72.10
81895;DHT22;71358;45.642;13.758;2023-07-24T19:45:18;29.70;72.20
81895;DHT22;71358;45.642;13.758;2023-07-24T19:48:03;29.70;73.90
81895;DHT22;71358;45.642;13.758;2023-07-24T19:50:49;29.70;76.20
81895;DHT22;71358;45.642;13.758;2023-07-24T19:53:33;29.60;73.90
81895;DHT22;71358;45.642;13.758;2023-07-24T19:56:18;29.50;64.40
81895;DHT22;71358;45.642;13.758;2023-07-24T19:59:03;29.40;63.80
81895;DHT22;71358;45.642;13.758;2023-07-24T20:01:48;29.30;64.60
81895;DHT22;71358;45.642;13.758;2023-07-24T20:04:33;29.10;64.90
81895;DHT22;71358;45.642;13.758;2023-07-24T20:07:17;29.10;64.90
81895;DHT22;71358;45.642;13.758;2023-07-24T20:10:04;29.00;65.00
81895;DHT22;71358;45.642;13.758;2023-07-24T20:12:48;29.00;64.90
81895;DHT22;71358;45.642;13.758;2023-07-24T20:15:33;29.00;64.50
81895;DHT22;71358;45.642;13.758;2023-07-24T20:18:18;28.90;64.20
81895;DHT22;71358;45.642;13.758;2023-07-24T20:21:03;28.90;64.70
81895;DHT22;71358;45.642;13.758;2023-07-24T20:23:47;28.90;63.20
81895;DHT22;71358;45.642;13.758;2023-07-24T20:26:32;28.80;62.70
81895;DHT22;71358;45.642;13.758;2023-07-24T20:29:17;28.80;62.20
81895;DHT22;71358;45.642;13.758;2023-07-24T20:32:01;28.70;61.60
81895;DHT22;71358;45.642;13.758;2023-07-24T20:34:46;28.70;61.60
81895;DHT22;71358;45.642;13.758;2023-07-24T20:37:30;28.70;61.70
81895;DHT22;71358;45.642;13.758;2023-07-24T20:40:16;28.70;62.10
81895;DHT22;71358;45.642;13.758;2023-07-24T20:43:02;28.70;62.50
81895;DHT22;71358;45.642;13.758;2023-07-24T20:45:48;28.70;62.60
81895;DHT22;71358;45.642;13.758;2023-07-24T20:48:34;28.70;62.90
81895;DHT22;71358;45.642;13.758;2023-07-24T20:51:20;28.80;63.00
81895;DHT22;71358;45.642;13.758;2023-07-24T20:54:04;28.80;62.70
81895;DHT22;71358;45.642;13.758;2023-07-24T20:56:49;28.80;62.40
81895;DHT22;71358;45.642;13.758;2023-07-24T20:59:34;28.80;62.20
81895;DHT22;71358;45.642;13.758;2023-07-24T21:02:18;28.80;62.00
81895;DHT22;71358;45.642;13.758;2023-07-24T21:05:03;28.70;62.20